createdAt,value
2018-12-02T00:00:42.446Z,1005.70
2018-12-02T00:01:42.316Z,1005.65
2018-12-02T00:02:42.330Z,1005.62
2018-12-02T00:03:42.245Z,1005.60
2018-12-02T00:04:42.234Z,1005.58
2018-12-02T00:05:42.254Z,1005.56
2018-12-02T00:06:42.227Z,1005.58
2018-12-02T00:07:42.208Z,1005.51
2018-12-02T00:08:42.219Z,1005.55
2018-12-02T00:09:42.273Z,1005.50
2018-12-02T00:10:42.183Z,1005.49
2018-12-02T00:11:42.162Z,1005.49
2018-12-02T00:12:42.152Z,1005.46
2018-12-02T00:13:42.138Z,1005.44
2018-12-02T00:14:42.145Z,1005.43
2018-12-02T00:15:42.131Z,1005.44
2018-12-02T00:16:42.100Z,1005.39
2018-12-02T00:17:42.109Z,1005.42
2018-12-02T00:18:42.084Z,1005.42
2018-12-02T00:19:42.091Z,1005.43
2018-12-02T00:20:42.087Z,1005.34
2018-12-02T00:21:42.058Z,1005.43
2018-12-02T00:22:42.063Z,1005.37
2018-12-02T00:23:42.032Z,1005.37
2018-12-02T00:24:42.029Z,1005.37
2018-12-02T00:25:42.024Z,1005.33
2018-12-02T00:26:42.026Z,1005.33
2018-12-02T00:27:41.992Z,1005.38
2018-12-02T00:28:41.977Z,1005.33
2018-12-02T00:29:41.986Z,1005.35
2018-12-02T00:30:42.029Z,1005.30
2018-12-02T00:31:41.951Z,1005.28
2018-12-02T00:32:41.937Z,1005.24
2018-12-02T00:33:41.927Z,1005.24
2018-12-02T00:34:41.919Z,1005.24
2018-12-02T00:35:41.923Z,1005.14
2018-12-02T00:36:41.909Z,1005.10
2018-12-02T00:37:41.883Z,1005.15
2018-12-02T00:38:41.871Z,1005.12
2018-12-02T00:39:41.861Z,1005.13
2018-12-02T00:40:41.866Z,1005.09
2018-12-02T00:41:41.844Z,1005.07
2018-12-02T00:42:41.830Z,1005.17
2018-12-02T00:43:41.826Z,1005.12
2018-12-02T00:44:41.814Z,1005.10
2018-12-02T00:45:41.815Z,1005.10
2018-12-02T00:46:41.781Z,1005.03
2018-12-02T00:47:41.771Z,1005.12
2018-12-02T00:48:41.811Z,1005.12
2018-12-02T00:49:41.764Z,1005.15
2018-12-02T00:50:41.752Z,1005.08
2018-12-02T00:51:41.745Z,1005.00
2018-12-02T00:52:41.721Z,1005.11
2018-12-02T00:53:41.724Z,1005.07
2018-12-02T00:54:41.707Z,1005.16
2018-12-02T00:55:41.730Z,1005.16
2018-12-02T00:56:41.678Z,1005.12
2018-12-02T00:57:41.670Z,1005.11
2018-12-02T00:58:41.659Z,1005.12
2018-12-02T00:59:41.645Z,1005.09
2018-12-02T01:00:41.662Z,1005.09
2018-12-02T01:01:41.627Z,1005.14
2018-12-02T01:02:41.618Z,1005.13
2018-12-02T01:03:41.614Z,1005.11
2018-12-02T01:04:41.591Z,1005.15
2018-12-02T01:05:41.661Z,1005.12
2018-12-02T01:06:41.652Z,1005.09
2018-12-02T01:07:41.557Z,1005.09
2018-12-02T01:08:41.549Z,1005.07
2018-12-02T01:09:41.537Z,1005.07
2018-12-02T01:10:41.627Z,1005.07
2018-12-02T01:11:41.677Z,1005.05
2018-12-02T01:12:41.618Z,1005.11
2018-12-02T01:13:41.503Z,1005.04
2018-12-02T01:14:41.530Z,1005.07
2018-12-02T01:15:41.486Z,1005.02
2018-12-02T01:16:41.507Z,1004.97
2018-12-02T01:17:41.479Z,1005.00
2018-12-02T01:18:41.438Z,1004.98
2018-12-02T01:19:41.430Z,1004.92
2018-12-02T01:20:41.489Z,1004.90
2018-12-02T01:21:41.445Z,1004.97
2018-12-02T01:22:41.392Z,1004.95
2018-12-02T01:23:41.381Z,1004.96
2018-12-02T01:24:41.374Z,1004.99
2018-12-02T01:25:41.368Z,1004.93
2018-12-02T01:26:41.346Z,1004.93
2018-12-02T01:27:41.364Z,1004.98
2018-12-02T01:28:41.331Z,1004.95
2018-12-02T01:29:41.323Z,1004.92
2018-12-02T01:30:41.309Z,1004.91
2018-12-02T01:31:41.320Z,1004.89
2018-12-02T01:32:41.306Z,1004.78
2018-12-02T01:33:41.282Z,1004.83
2018-12-02T01:34:41.269Z,1004.79
2018-12-02T01:35:41.254Z,1004.75
2018-12-02T01:36:41.249Z,1004.79
2018-12-02T01:37:41.295Z,1004.72
2018-12-02T01:38:41.227Z,1004.70
2018-12-02T01:39:41.222Z,1004.71
2018-12-02T01:40:41.215Z,1004.69
2018-12-02T01:41:41.207Z,1004.74
2018-12-02T01:42:41.204Z,1004.68
2018-12-02T01:43:41.194Z,1004.69
2018-12-02T01:44:41.196Z,1004.65
2018-12-02T01:45:41.191Z,1004.64
2018-12-02T01:46:41.139Z,1004.62
2018-12-02T01:47:41.234Z,1004.62
2018-12-02T01:48:41.160Z,1004.64
2018-12-02T01:49:41.120Z,1004.57
2018-12-02T01:50:41.093Z,1004.59
2018-12-02T01:51:41.172Z,1004.56
2018-12-02T01:52:41.164Z,1004.57
2018-12-02T01:53:41.094Z,1004.58
2018-12-02T01:54:41.091Z,1004.51
2018-12-02T01:55:41.176Z,1004.56
2018-12-02T01:56:41.072Z,1004.50
2018-12-02T01:57:41.059Z,1004.51
2018-12-02T01:58:41.095Z,1004.50
2018-12-02T01:59:41.037Z,1004.47
2018-12-02T02:00:41.095Z,1004.48
2018-12-02T02:01:40.970Z,1004.46
2018-12-02T02:02:40.980Z,1004.40
2018-12-02T02:03:40.959Z,1004.32
2018-12-02T02:04:40.944Z,1004.30
2018-12-02T02:05:40.932Z,1004.27
2018-12-02T02:06:40.940Z,1004.25
2018-12-02T02:07:40.986Z,1004.28
2018-12-02T02:08:40.905Z,1004.25
2018-12-02T02:09:40.889Z,1004.21
2018-12-02T02:10:40.891Z,1004.21
2018-12-02T02:11:40.871Z,1004.21
2018-12-02T02:12:40.866Z,1004.17
2018-12-02T02:13:40.865Z,1004.19
2018-12-02T02:14:40.838Z,1004.15
2018-12-02T02:15:40.836Z,1004.17
2018-12-02T02:16:40.823Z,1004.12
2018-12-02T02:17:40.809Z,1004.14
2018-12-02T02:18:40.806Z,1004.10
2018-12-02T02:19:40.782Z,1004.10
2018-12-02T02:20:40.773Z,1004.10
2018-12-02T02:21:40.789Z,1004.07
2018-12-02T02:22:40.756Z,1004.13
2018-12-02T02:23:40.753Z,1004.06
2018-12-02T02:24:40.729Z,1004.07
2018-12-02T02:25:40.722Z,1004.08
2018-12-02T02:26:40.704Z,1004.10
2018-12-02T02:27:40.709Z,1004.07
2018-12-02T02:28:40.695Z,1004.06
2018-12-02T02:29:40.735Z,1004.01
2018-12-02T02:30:40.668Z,1004.00
2018-12-02T02:31:40.652Z,1003.93
2018-12-02T02:32:40.649Z,1003.82
2018-12-02T02:33:40.659Z,1003.75
2018-12-02T02:34:40.617Z,1003.75
2018-12-02T02:35:40.605Z,1003.71
2018-12-02T02:36:40.597Z,1003.64
2018-12-02T02:37:40.591Z,1003.51
2018-12-02T02:38:40.586Z,1003.54
2018-12-02T02:39:40.562Z,1003.52
2018-12-02T02:40:40.551Z,1003.52
2018-12-02T02:41:40.550Z,1003.56
2018-12-02T02:42:40.524Z,1003.56
2018-12-02T02:43:40.542Z,1003.56
2018-12-02T02:44:40.510Z,1003.50
2018-12-02T02:45:40.504Z,1003.53
2018-12-02T02:46:40.486Z,1003.54
2018-12-02T02:47:40.474Z,1003.48
2018-12-02T02:48:40.487Z,1003.45
2018-12-02T02:49:40.471Z,1003.45
2018-12-02T02:50:40.449Z,1003.39
2018-12-02T02:51:40.425Z,1003.43
2018-12-02T02:52:40.425Z,1003.41
2018-12-02T02:53:40.433Z,1003.39
2018-12-02T02:54:40.400Z,1003.36
2018-12-02T02:55:40.392Z,1003.40
2018-12-02T02:56:40.378Z,1003.39
2018-12-02T02:57:40.372Z,1003.42
2018-12-02T02:58:40.372Z,1003.43
2018-12-02T02:59:40.341Z,1003.38
2018-12-02T03:00:40.331Z,1003.41
2018-12-02T03:01:40.322Z,1003.38
2018-12-02T03:02:40.317Z,1003.38
2018-12-02T03:03:40.311Z,1003.32
2018-12-02T03:04:40.299Z,1003.30
2018-12-02T03:05:40.285Z,1003.30
2018-12-02T03:06:40.267Z,1003.30
2018-12-02T03:07:40.267Z,1003.27
2018-12-02T03:08:40.263Z,1003.27
2018-12-02T03:09:40.238Z,1003.27
2018-12-02T03:10:40.877Z,1003.24
2018-12-02T03:11:40.226Z,1003.21
2018-12-02T03:12:40.202Z,1003.23
2018-12-02T03:13:40.207Z,1003.22
2018-12-02T03:14:40.182Z,1003.17
2018-12-02T03:15:40.174Z,1003.16
2018-12-02T03:16:40.170Z,1003.17
2018-12-02T03:17:40.156Z,1003.15
2018-12-02T03:18:40.159Z,1003.23
2018-12-02T03:19:40.143Z,1003.21
2018-12-02T03:20:40.119Z,1003.18
2018-12-02T03:21:40.103Z,1003.20
2018-12-02T03:22:40.105Z,1003.16
2018-12-02T03:23:40.107Z,1003.10
2018-12-02T03:24:40.077Z,1003.16
2018-12-02T03:25:40.064Z,1003.14
2018-12-02T03:26:40.058Z,1003.13
2018-12-02T03:27:40.046Z,1003.09
2018-12-02T03:28:40.050Z,1003.12
2018-12-02T03:29:40.025Z,1003.04
2018-12-02T03:30:40.016Z,1003.12
2018-12-02T03:31:40.002Z,1003.07
2018-12-02T03:32:39.994Z,1003.04
2018-12-02T03:33:40.014Z,1003.06
2018-12-02T03:34:39.962Z,1003.02
2018-12-02T03:35:39.954Z,1003.02
2018-12-02T03:36:39.947Z,1003.00
2018-12-02T03:37:39.932Z,1003.00
2018-12-02T03:38:39.931Z,1002.92
2018-12-02T03:39:39.936Z,1002.96
2018-12-02T03:40:39.907Z,1002.88
2018-12-02T03:41:39.886Z,1002.88
2018-12-02T03:42:39.881Z,1002.82
2018-12-02T03:43:39.864Z,1002.81
2018-12-02T03:44:39.874Z,1002.80
2018-12-02T03:45:39.854Z,1002.79
2018-12-02T03:46:39.837Z,1002.75
2018-12-02T03:47:39.831Z,1002.80
2018-12-02T03:48:39.809Z,1002.76
2018-12-02T03:49:39.819Z,1002.74
2018-12-02T03:50:39.791Z,1002.74
2018-12-02T03:51:39.779Z,1002.76
2018-12-02T03:52:39.773Z,1002.76
2018-12-02T03:53:39.755Z,1002.73
2018-12-02T03:54:39.769Z,1002.75
2018-12-02T03:55:39.740Z,1002.74
2018-12-02T03:56:39.727Z,1002.73
2018-12-02T03:57:39.719Z,1002.71
2018-12-02T03:58:39.709Z,1002.69
2018-12-02T03:59:39.719Z,1002.62
2018-12-02T04:00:39.688Z,1002.58
2018-12-02T04:01:39.678Z,1002.56
2018-12-02T04:02:39.667Z,1002.50
2018-12-02T04:03:39.658Z,1002.49
2018-12-02T04:04:39.653Z,1002.48
2018-12-02T04:05:39.631Z,1002.48
2018-12-02T04:06:39.622Z,1002.47
2018-12-02T04:07:39.622Z,1002.50
2018-12-02T04:08:39.598Z,1002.48
2018-12-02T04:09:39.598Z,1002.47
2018-12-02T04:10:39.577Z,1002.48
2018-12-02T04:11:39.567Z,1002.41
2018-12-02T04:12:39.580Z,1002.41
2018-12-02T04:13:39.545Z,1002.42
2018-12-02T04:14:39.548Z,1002.29
2018-12-02T04:15:39.528Z,1002.27
2018-12-02T04:16:39.516Z,1002.27
2018-12-02T04:17:39.503Z,1002.25
2018-12-02T04:18:39.492Z,1002.25
2018-12-02T04:19:39.502Z,1002.23
2018-12-02T04:20:39.470Z,1002.28
2018-12-02T04:21:39.460Z,1002.24
2018-12-02T04:22:39.447Z,1002.25
2018-12-02T04:23:39.441Z,1002.23
2018-12-02T04:24:39.431Z,1002.18
2018-12-02T04:25:39.428Z,1002.16
2018-12-02T04:26:39.408Z,1002.20
2018-12-02T04:27:39.400Z,1002.15
2018-12-02T04:28:39.388Z,1002.09
2018-12-02T04:29:39.372Z,1002.07
2018-12-02T04:30:39.394Z,1002.04
2018-12-02T04:31:39.350Z,1001.99
2018-12-02T04:32:39.349Z,1001.91
2018-12-02T04:33:39.331Z,1001.88
2018-12-02T04:34:39.317Z,1001.84
2018-12-02T04:35:39.326Z,1001.81
2018-12-02T04:36:39.306Z,1001.72
2018-12-02T04:37:39.292Z,1001.72
2018-12-02T04:38:39.275Z,1001.78
2018-12-02T04:39:39.271Z,1001.74
2018-12-02T04:40:39.266Z,1001.75
2018-12-02T04:41:39.243Z,1001.73
2018-12-02T04:42:39.230Z,1001.77
2018-12-02T04:43:39.225Z,1001.73
2018-12-02T04:44:39.211Z,1001.68
2018-12-02T04:45:39.214Z,1001.65
2018-12-02T04:46:39.206Z,1001.64
2018-12-02T04:47:39.179Z,1001.63
2018-12-02T04:48:39.164Z,1001.60
2018-12-02T04:49:39.157Z,1001.62
2018-12-02T04:50:39.169Z,1001.63
2018-12-02T04:51:39.140Z,1001.59
2018-12-02T04:52:39.125Z,1001.66
2018-12-02T04:53:39.126Z,1001.54
2018-12-02T04:54:39.114Z,1001.51
2018-12-02T04:55:39.107Z,1001.48
2018-12-02T04:56:39.081Z,1001.47
2018-12-02T04:57:39.071Z,1001.51
2018-12-02T04:58:39.069Z,1001.42
2018-12-02T04:59:39.052Z,1001.45
2018-12-02T05:00:39.053Z,1001.44
2018-12-02T05:01:39.029Z,1001.41
2018-12-02T05:02:39.021Z,1001.37
2018-12-02T05:03:39.006Z,1001.38
2018-12-02T05:04:39.001Z,1001.37
2018-12-02T05:05:39.001Z,1001.38
2018-12-02T05:06:38.976Z,1001.42
2018-12-02T05:07:38.967Z,1001.38
2018-12-02T05:08:38.954Z,1001.37
2018-12-02T05:09:38.941Z,1001.37
2018-12-02T05:10:38.946Z,1001.31
2018-12-02T05:11:38.932Z,1001.30
2018-12-02T05:12:38.925Z,1001.28
2018-12-02T05:13:38.908Z,1001.30
2018-12-02T05:14:38.894Z,1001.34
2018-12-02T05:15:38.902Z,1001.38
2018-12-02T05:16:38.882Z,1001.33
2018-12-02T05:17:38.860Z,1001.38
2018-12-02T05:18:38.860Z,1001.39
2018-12-02T05:19:38.840Z,1001.34
2018-12-02T05:20:38.844Z,1001.34
2018-12-02T05:21:38.817Z,1001.31
2018-12-02T05:22:38.803Z,1001.32
2018-12-02T05:23:38.797Z,1001.32
2018-12-02T05:24:38.793Z,1001.36
2018-12-02T05:25:38.803Z,1001.39
2018-12-02T05:26:38.771Z,1001.39
2018-12-02T05:27:38.757Z,1001.36
2018-12-02T05:28:38.743Z,1001.34
2018-12-02T05:29:38.730Z,1001.31
2018-12-02T05:30:38.724Z,1001.34
2018-12-02T05:31:38.724Z,1001.34
2018-12-02T05:32:38.703Z,1001.32
2018-12-02T05:33:38.695Z,1001.32
2018-12-02T05:34:38.680Z,1001.29
2018-12-02T05:35:38.669Z,1001.31
2018-12-02T05:36:38.668Z,1001.33
2018-12-02T05:37:38.649Z,1001.31
2018-12-02T05:38:38.634Z,1001.27
2018-12-02T05:39:38.627Z,1001.22
2018-12-02T05:40:38.614Z,1001.23
2018-12-02T05:41:38.619Z,1001.21
2018-12-02T05:42:38.593Z,1001.21
2018-12-02T05:43:38.583Z,1001.18
2018-12-02T05:44:38.568Z,1001.08
2018-12-02T05:45:38.604Z,1001.05
2018-12-02T05:46:38.565Z,1001.11
2018-12-02T05:47:38.536Z,1000.99
2018-12-02T05:48:38.531Z,1001.00
2018-12-02T05:49:38.521Z,1000.99
2018-12-02T05:50:38.508Z,1000.96
2018-12-02T05:51:38.521Z,1000.89
2018-12-02T05:52:38.480Z,1000.93
2018-12-02T05:53:38.474Z,1000.94
2018-12-02T05:54:38.477Z,1000.98
2018-12-02T05:55:38.459Z,1000.96
2018-12-02T05:56:38.475Z,1000.92
2018-12-02T05:57:38.437Z,1000.91
2018-12-02T05:58:38.420Z,1000.94
2018-12-02T05:59:38.408Z,1000.94
2018-12-02T06:00:38.396Z,1000.94
2018-12-02T06:01:38.383Z,1000.91
2018-12-02T06:02:39.528Z,1000.81
2018-12-02T06:03:38.361Z,1000.80
2018-12-02T06:04:38.353Z,1000.75
2018-12-02T06:05:38.342Z,1000.73
2018-12-02T06:06:38.334Z,1000.66
2018-12-02T06:07:38.329Z,1000.67
2018-12-02T06:08:38.309Z,1000.68
2018-12-02T06:09:38.299Z,1000.70
2018-12-02T06:10:38.294Z,1000.63
2018-12-02T06:11:43.691Z,1000.59
2018-12-02T06:12:39.311Z,1000.62
2018-12-02T06:13:38.257Z,1000.64
2018-12-02T06:14:38.243Z,1000.59
2018-12-02T06:15:39.316Z,1000.64
2018-12-02T06:16:38.225Z,1000.66
2018-12-02T06:17:38.211Z,1000.66
2018-12-02T06:18:38.215Z,1000.74
2018-12-02T06:19:38.192Z,1000.75
2018-12-02T06:20:38.177Z,1000.79
2018-12-02T06:21:38.169Z,1000.75
2018-12-02T06:22:38.156Z,1000.78
2018-12-02T06:23:38.159Z,1000.78
2018-12-02T06:24:38.137Z,1000.74
2018-12-02T06:25:38.127Z,1000.76
2018-12-02T06:26:38.114Z,1000.74
2018-12-02T06:27:38.100Z,1000.72
2018-12-02T06:28:38.109Z,1000.78
2018-12-02T06:29:38.083Z,1000.78
2018-12-02T06:30:38.078Z,1000.81
2018-12-02T06:31:38.059Z,1000.81
2018-12-02T06:32:38.053Z,1000.91
2018-12-02T06:33:38.062Z,1000.94
2018-12-02T06:34:38.031Z,1000.88
2018-12-02T06:35:38.028Z,1000.90
2018-12-02T06:36:38.029Z,1000.81
2018-12-02T06:37:37.998Z,1000.77
2018-12-02T06:38:37.999Z,1000.74
2018-12-02T06:39:37.974Z,1000.78
2018-12-02T06:40:37.963Z,1000.77
2018-12-02T06:41:37.953Z,1000.75
2018-12-02T06:42:37.941Z,1000.69
2018-12-02T06:43:37.968Z,1000.63
2018-12-02T06:44:37.922Z,1000.59
2018-12-02T06:45:37.911Z,1000.54
2018-12-02T06:46:37.900Z,1000.58
2018-12-02T06:47:37.889Z,1000.57
2018-12-02T06:48:37.875Z,1000.52
2018-12-02T06:49:37.874Z,1000.59
2018-12-02T06:50:37.853Z,1000.63
2018-12-02T06:51:37.849Z,1000.62
2018-12-02T06:52:37.829Z,1000.65
2018-12-02T06:53:37.819Z,1000.65
2018-12-02T06:54:37.831Z,1000.70
2018-12-02T06:55:37.819Z,1000.74
2018-12-02T06:56:37.790Z,1000.70
2018-12-02T06:57:37.778Z,1000.64
2018-12-02T06:58:37.765Z,1000.51
2018-12-02T06:59:37.761Z,1000.56
2018-12-02T07:00:37.766Z,1000.58
2018-12-02T07:01:37.736Z,1000.55
2018-12-02T07:02:37.722Z,1000.49
2018-12-02T07:03:37.724Z,1000.47
2018-12-02T07:04:37.704Z,1000.53
2018-12-02T07:05:37.717Z,1000.51
2018-12-02T07:06:37.682Z,1000.55
2018-12-02T07:07:37.669Z,1000.49
2018-12-02T07:08:37.663Z,1000.49
2018-12-02T07:09:37.653Z,1000.44
2018-12-02T07:10:37.636Z,1000.42
2018-12-02T07:11:37.646Z,1000.39
2018-12-02T07:12:37.616Z,1000.31
2018-12-02T07:13:37.607Z,1000.31
2018-12-02T07:14:37.599Z,1000.28
2018-12-02T07:15:37.584Z,1000.29
2018-12-02T07:16:37.591Z,1000.28
2018-12-02T07:17:37.566Z,1000.23
2018-12-02T07:18:37.558Z,1000.31
2018-12-02T07:19:37.544Z,1000.32
2018-12-02T07:20:37.529Z,1000.29
2018-12-02T07:21:37.536Z,1000.27
2018-12-02T07:22:37.509Z,1000.21
2018-12-02T07:23:37.520Z,1000.10
2018-12-02T07:24:37.499Z,1000.00
2018-12-02T07:25:37.479Z,1000.02
2018-12-02T07:26:37.481Z,1000.05
2018-12-02T07:27:37.452Z,1000.14
2018-12-02T07:28:37.448Z,1000.13
2018-12-02T07:29:37.449Z,1000.09
2018-12-02T07:30:37.425Z,1000.02
2018-12-02T07:31:37.429Z,999.95
2018-12-02T07:32:38.547Z,999.97
2018-12-02T07:33:37.392Z,1000.02
2018-12-02T07:34:37.381Z,999.97
2018-12-02T07:35:37.369Z,999.91
2018-12-02T07:36:37.385Z,999.86
2018-12-02T07:37:37.358Z,999.88
2018-12-02T07:38:37.347Z,999.93
2018-12-02T07:39:37.331Z,999.95
2018-12-02T07:40:37.327Z,999.95
2018-12-02T07:41:37.311Z,999.87
2018-12-02T07:42:37.316Z,999.77
2018-12-02T07:43:37.290Z,999.69
2018-12-02T07:44:37.274Z,999.68
2018-12-02T07:45:37.271Z,999.69
2018-12-02T07:46:37.255Z,999.72
2018-12-02T07:47:37.283Z,999.65
2018-12-02T07:48:37.230Z,999.68
2018-12-02T07:49:37.217Z,999.62
2018-12-02T07:50:37.213Z,999.63
2018-12-02T07:51:37.198Z,999.72
2018-12-02T07:52:37.188Z,999.69
2018-12-02T07:53:37.193Z,999.62
2018-12-02T07:54:37.163Z,999.64
2018-12-02T07:55:37.159Z,999.59
2018-12-02T07:56:37.143Z,999.61
2018-12-02T07:57:37.393Z,999.59
2018-12-02T07:58:37.151Z,999.65
2018-12-02T07:59:37.135Z,999.66
2018-12-02T08:00:37.109Z,999.67
2018-12-02T08:01:37.089Z,999.62
2018-12-02T08:02:37.096Z,999.63
2018-12-02T08:03:37.085Z,999.64
2018-12-02T08:04:37.073Z,999.57
2018-12-02T08:05:37.049Z,999.62
2018-12-02T08:06:37.033Z,999.59
2018-12-02T08:07:37.022Z,999.55
2018-12-02T08:08:37.026Z,999.46
2018-12-02T08:09:37.005Z,999.43
2018-12-02T08:10:36.990Z,999.48
2018-12-02T08:11:36.989Z,999.47
2018-12-02T08:12:36.978Z,999.48
2018-12-02T08:13:37.044Z,999.45
2018-12-02T08:14:36.950Z,999.42
2018-12-02T08:15:36.974Z,999.45
2018-12-02T08:16:36.942Z,999.50
2018-12-02T08:17:36.922Z,999.46
2018-12-02T08:18:36.923Z,999.42
2018-12-02T08:19:36.892Z,999.41
2018-12-02T08:20:36.885Z,999.30
2018-12-02T08:21:36.876Z,999.25
2018-12-02T08:22:36.865Z,999.27
2018-12-02T08:23:36.862Z,999.25
2018-12-02T08:24:36.864Z,999.26
2018-12-02T08:25:36.876Z,999.23
2018-12-02T08:26:36.825Z,999.19
2018-12-02T08:27:36.811Z,999.19
2018-12-02T08:28:36.803Z,999.18
2018-12-02T08:29:36.820Z,999.17
2018-12-02T08:30:36.783Z,999.18
2018-12-02T08:31:36.777Z,999.19
2018-12-02T08:32:36.765Z,999.22
2018-12-02T08:33:36.744Z,999.14
2018-12-02T08:34:36.766Z,999.14
2018-12-02T08:35:36.725Z,999.16
2018-12-02T08:36:36.715Z,999.13
2018-12-02T08:37:36.705Z,999.18
2018-12-02T08:38:36.714Z,999.09
2018-12-02T08:39:36.681Z,999.04
2018-12-02T08:40:36.689Z,999.02
2018-12-02T08:41:36.705Z,999.10
2018-12-02T08:42:36.682Z,998.96
2018-12-02T08:43:36.666Z,999.03
2018-12-02T08:44:36.645Z,999.04
2018-12-02T08:45:36.659Z,999.04
2018-12-02T08:46:36.612Z,999.00
2018-12-02T08:47:36.613Z,999.02
2018-12-02T08:48:36.592Z,999.01
2018-12-02T08:49:36.580Z,999.02
2018-12-02T08:50:36.582Z,999.07
2018-12-02T08:51:36.556Z,999.03
2018-12-02T08:52:36.548Z,999.02
2018-12-02T08:53:36.541Z,999.02
2018-12-02T08:54:36.521Z,999.00
2018-12-02T08:55:36.530Z,998.96
2018-12-02T08:56:36.503Z,998.97
2018-12-02T08:57:36.492Z,999.06
2018-12-02T08:58:36.489Z,998.97
2018-12-02T08:59:36.474Z,998.95
2018-12-02T09:00:36.472Z,998.95
2018-12-02T09:01:36.451Z,998.98
2018-12-02T09:02:36.440Z,998.93
2018-12-02T09:03:36.433Z,998.93
2018-12-02T09:04:36.414Z,998.85
2018-12-02T09:05:36.464Z,998.85
2018-12-02T09:06:36.392Z,998.87
2018-12-02T09:07:36.395Z,998.83
2018-12-02T09:08:36.378Z,998.86
2018-12-02T09:09:36.377Z,998.83
2018-12-02T09:10:36.386Z,998.81
2018-12-02T09:11:36.345Z,998.84
2018-12-02T09:12:36.332Z,998.78
2018-12-02T09:13:36.340Z,998.77
2018-12-02T09:14:36.315Z,998.74
2018-12-02T09:15:36.317Z,998.71
2018-12-02T09:16:36.290Z,998.75
2018-12-02T09:17:36.278Z,998.72
2018-12-02T09:18:36.764Z,998.75
2018-12-02T09:19:36.260Z,998.65
2018-12-02T09:20:36.261Z,998.64
2018-12-02T09:21:36.252Z,998.71
2018-12-02T09:22:36.234Z,998.67
2018-12-02T09:23:36.215Z,998.64
2018-12-02T09:24:36.225Z,998.65
2018-12-02T09:25:36.222Z,998.65
2018-12-02T09:26:36.189Z,998.62
2018-12-02T09:27:36.172Z,998.63
2018-12-02T09:28:36.164Z,998.62
2018-12-02T09:29:36.159Z,998.57
2018-12-02T09:30:36.148Z,998.56
2018-12-02T09:31:36.140Z,998.56
2018-12-02T09:32:36.118Z,998.54
2018-12-02T09:33:36.131Z,998.60
2018-12-02T09:34:36.100Z,998.56
2018-12-02T09:35:36.091Z,998.51
2018-12-02T09:36:36.112Z,998.49
2018-12-02T09:37:36.075Z,998.45
2018-12-02T09:38:36.067Z,998.50
2018-12-02T09:39:36.062Z,998.44
2018-12-02T09:40:36.047Z,998.44
2018-12-02T09:41:36.092Z,998.43
2018-12-02T09:42:36.030Z,998.37
2018-12-02T09:43:36.009Z,998.43
2018-12-02T09:44:35.993Z,998.33
2018-12-02T09:45:35.987Z,998.33
2018-12-02T09:46:36.002Z,998.32
2018-12-02T09:47:35.998Z,998.34
2018-12-02T09:48:35.951Z,998.31
2018-12-02T09:49:35.940Z,998.27
2018-12-02T09:50:35.933Z,998.23
2018-12-02T09:51:36.041Z,998.20
2018-12-02T09:52:35.961Z,998.23
2018-12-02T09:53:35.931Z,998.19
2018-12-02T09:54:35.893Z,998.20
2018-12-02T09:55:35.882Z,998.17
2018-12-02T09:56:35.872Z,998.13
2018-12-02T09:57:35.850Z,998.18
2018-12-02T09:58:35.869Z,998.15
2018-12-02T09:59:35.837Z,998.17
2018-12-02T10:00:35.830Z,998.12
2018-12-02T10:01:35.820Z,998.04
2018-12-02T10:02:35.804Z,998.08
2018-12-02T10:03:35.804Z,998.02
2018-12-02T10:04:35.793Z,998.04
2018-12-02T10:05:35.775Z,998.01
2018-12-02T10:06:35.769Z,997.98
2018-12-02T10:07:35.749Z,997.94
2018-12-02T10:08:35.759Z,997.94
2018-12-02T10:09:35.726Z,997.93
2018-12-02T10:10:35.718Z,997.91
2018-12-02T10:11:35.718Z,997.88
2018-12-02T10:12:35.732Z,997.92
2018-12-02T10:13:35.687Z,997.88
2018-12-02T10:14:35.745Z,997.83
2018-12-02T10:15:35.687Z,997.75
2018-12-02T10:16:35.674Z,997.79
2018-12-02T10:17:35.644Z,997.80
2018-12-02T10:18:35.635Z,997.78
2018-12-02T10:19:35.633Z,997.76
2018-12-02T10:20:35.624Z,997.69
2018-12-02T10:21:35.615Z,997.71
2018-12-02T10:22:35.588Z,997.73
2018-12-02T10:23:35.579Z,997.69
2018-12-02T10:24:35.571Z,997.72
2018-12-02T10:25:35.572Z,997.64
2018-12-02T10:26:35.557Z,997.67
2018-12-02T10:27:35.543Z,997.63
2018-12-02T10:28:35.533Z,997.69
2018-12-02T10:29:35.516Z,997.64
2018-12-02T10:30:35.526Z,997.62
2018-12-02T10:31:35.499Z,997.66
2018-12-02T10:32:35.487Z,997.62
2018-12-02T10:33:35.484Z,997.59
2018-12-02T10:34:35.465Z,997.64
2018-12-02T10:35:35.499Z,997.59
2018-12-02T10:36:35.443Z,997.57
2018-12-02T10:37:35.439Z,997.58
2018-12-02T10:38:35.420Z,997.51
2018-12-02T10:39:35.417Z,997.51
2018-12-02T10:40:35.400Z,997.54
2018-12-02T10:41:35.420Z,997.47
2018-12-02T10:42:35.386Z,997.44
2018-12-02T10:43:35.368Z,997.46
2018-12-02T10:44:35.360Z,997.43
2018-12-02T10:45:35.503Z,997.43
2018-12-02T10:46:35.367Z,997.38
2018-12-02T10:47:35.327Z,997.36
2018-12-02T10:48:35.340Z,997.36
2018-12-02T10:49:35.322Z,997.34
2018-12-02T10:50:35.343Z,997.31
2018-12-02T10:51:35.302Z,997.31
2018-12-02T10:52:35.273Z,997.28
2018-12-02T10:53:35.262Z,997.29
2018-12-02T10:54:35.252Z,997.29
2018-12-02T10:55:35.254Z,997.26
2018-12-02T10:56:35.231Z,997.23
2018-12-02T10:57:35.245Z,997.24
2018-12-02T10:58:35.211Z,997.26
2018-12-02T10:59:35.217Z,997.23
2018-12-02T11:00:35.191Z,997.21
2018-12-02T11:01:35.180Z,997.20
2018-12-02T11:02:35.209Z,997.15
2018-12-02T11:03:35.158Z,997.12
2018-12-02T11:04:35.153Z,997.17
2018-12-02T11:05:35.332Z,997.12
2018-12-02T11:06:36.330Z,997.15
2018-12-02T11:07:35.328Z,997.06
2018-12-02T11:08:35.151Z,997.08
2018-12-02T11:09:35.093Z,997.03
2018-12-02T11:10:35.081Z,997.04
2018-12-02T11:11:35.072Z,997.06
2018-12-02T11:12:35.064Z,997.01
2018-12-02T11:13:35.062Z,996.97
2018-12-02T11:14:35.060Z,996.98
2018-12-02T11:15:35.036Z,996.88
2018-12-02T11:16:35.542Z,996.94
2018-12-02T11:17:35.073Z,996.91
2018-12-02T11:18:35.094Z,996.98
2018-12-02T11:19:35.691Z,996.93
2018-12-02T11:20:34.978Z,996.87
2018-12-02T11:21:34.967Z,996.87
2018-12-02T11:22:35.237Z,996.86
2018-12-02T11:23:34.960Z,996.82
2018-12-02T11:24:35.964Z,996.75
2018-12-02T11:25:34.930Z,996.79
2018-12-02T11:26:34.915Z,996.75
2018-12-02T11:27:34.904Z,996.75
2018-12-02T11:28:34.914Z,996.69
2018-12-02T11:29:34.884Z,996.70
2018-12-02T11:30:34.866Z,996.72
2018-12-02T11:31:34.871Z,996.68
2018-12-02T11:32:34.845Z,996.69
2018-12-02T11:33:34.837Z,996.70
2018-12-02T11:34:34.834Z,996.74
2018-12-02T11:35:34.827Z,996.67
2018-12-02T11:36:34.812Z,996.63
2018-12-02T11:37:34.803Z,996.63
2018-12-02T11:38:34.795Z,996.67
2018-12-02T11:39:34.807Z,996.70
2018-12-02T11:40:34.766Z,996.68
2018-12-02T11:41:34.769Z,996.69
2018-12-02T11:42:34.744Z,996.67
2018-12-02T11:43:34.733Z,996.73
2018-12-02T11:44:34.726Z,996.64
2018-12-02T11:45:34.738Z,996.61
2018-12-02T11:46:34.706Z,996.60
2018-12-02T11:47:34.686Z,996.65
2018-12-02T11:48:34.686Z,996.58
2018-12-02T11:49:34.678Z,996.60
2018-12-02T11:50:34.730Z,996.58
2018-12-02T11:51:34.730Z,996.60
2018-12-02T11:52:34.687Z,996.60
2018-12-02T11:53:34.695Z,996.57
2018-12-02T11:54:34.624Z,996.46
2018-12-02T11:55:34.718Z,996.53
2018-12-02T11:56:34.709Z,996.46
2018-12-02T11:57:34.630Z,996.49
2018-12-02T11:58:34.745Z,996.49
2018-12-02T11:59:34.695Z,996.51
2018-12-02T12:00:34.589Z,996.47
2018-12-02T12:01:34.586Z,996.40
2018-12-02T12:02:34.682Z,996.43
2018-12-02T12:03:34.545Z,996.47
2018-12-02T12:04:34.589Z,996.37
2018-12-02T12:05:34.528Z,996.35
2018-12-02T12:06:34.495Z,996.39
2018-12-02T12:07:34.513Z,996.33
2018-12-02T12:08:34.649Z,996.31
2018-12-02T12:09:34.467Z,996.37
2018-12-02T12:10:34.468Z,996.36
2018-12-02T12:11:34.438Z,996.32
2018-12-02T12:12:34.426Z,996.26
2018-12-02T12:13:34.703Z,996.33
2018-12-02T12:14:34.402Z,996.28